sensor_id;sensor_type;location;lat;lon;timestamp;P1;durP1;ratioP1;P2;durP2;ratioP2
31596;SDS011;18201;50.978;7.034;2022-09-29T00:00:32;23.90;;;15.32;;
31596;SDS011;18201;50.978;7.034;2022-09-29T00:01:34;24.60;;;14.93;;
31596;SDS011;18201;50.978;7.034;2022-09-29T00:02:36;23.27;;;14.98;;
31596;SDS011;18201;50.978;7.034;2022-09-29T00:03:36;25.88;;;16.40;;
31596;SDS011;18201;50.978;7.034;2022-09-29T00:04:38;21.80;;;15.40;;
31596;SDS011;18201;50.978;7.034;2022-09-29T00:05:44;27.50;;;15.52;;
31596;SDS011;18201;50.978;7.034;2022-09-29T00:06:47;22.17;;;15.45;;
31596;SDS011;18201;50.978;7.034;2022-09-29T00:07:49;23.17;;;15.40;;
31596;SDS011;18201;50.978;7.034;2022-09-29T00:08:50;22.40;;;15.32;;
31596;SDS011;18201;50.978;7.034;2022-09-29T00:09:51;20.50;;;16.02;;
31596;SDS011;18201;50.978;7.034;2022-09-29T00:10:52;24.98;;;15.55;;
31596;SDS011;18201;50.978;7.034;2022-09-29T00:11:54;22.20;;;15.48;;
31596;SDS011;18201;50.978;7.034;2022-09-29T00:12:55;24.92;;;15.52;;
31596;SDS011;18201;50.978;7.034;2022-09-29T00:13:57;22.98;;;14.82;;
31596;SDS011;18201;50.978;7.034;2022-09-29T00:14:59;23.45;;;15.20;;
31596;SDS011;18201;50.978;7.034;2022-09-29T00:16:02;23.60;;;14.35;;
31596;SDS011;18201;50.978;7.034;2022-09-29T00:17:03;18.52;;;13.93;;
31596;SDS011;18201;50.978;7.034;2022-09-29T00:18:05;25.50;;;15.13;;
31596;SDS011;18201;50.978;7.034;2022-09-29T00:19:07;22.73;;;15.05;;
31596;SDS011;18201;50.978;7.034;2022-09-29T00:20:09;25.17;;;15.63;;
31596;SDS011;18201;50.978;7.034;2022-09-29T00:21:11;23.92;;;14.82;;
31596;SDS011;18201;50.978;7.034;2022-09-29T00:22:14;19.10;;;14.15;;
31596;SDS011;18201;50.978;7.034;2022-09-29T00:23:15;19.67;;;15.30;;
31596;SDS011;18201;50.978;7.034;2022-09-29T00:24:17;21.55;;;15.27;;
31596;SDS011;18201;50.978;7.034;2022-09-29T00:25:18;21.88;;;14.88;;
31596;SDS011;18201;50.978;7.034;2022-09-29T00:26:20;21.23;;;14.38;;
31596;SDS011;18201;50.978;7.034;2022-09-29T00:27:22;22.45;;;15.40;;
31596;SDS011;18201;50.978;7.034;2022-09-29T00:31:08;20.98;;;13.95;;
31596;SDS011;18201;50.978;7.034;2022-09-29T00:32:11;22.10;;;14.70;;
31596;SDS011;18201;50.978;7.034;2022-09-29T00:33:12;20.48;;;14.98;;
31596;SDS011;18201;50.978;7.034;2022-09-29T00:34:14;26.15;;;14.55;;
31596;SDS011;18201;50.978;7.034;2022-09-29T00:35:16;21.80;;;14.23;;
31596;SDS011;18201;50.978;7.034;2022-09-29T00:36:17;20.58;;;15.00;;
31596;SDS011;18201;50.978;7.034;2022-09-29T00:37:21;18.77;;;13.93;;
31596;SDS011;18201;50.978;7.034;2022-09-29T00:38:21;21.15;;;15.18;;
31596;SDS011;18201;50.978;7.034;2022-09-29T00:39:23;30.48;;;16.55;;
31596;SDS011;18201;50.978;7.034;2022-09-29T00:40:24;22.80;;;15.40;;
31596;SDS011;18201;50.978;7.034;2022-09-29T00:41:28;24.60;;;16.13;;
31596;SDS011;18201;50.978;7.034;2022-09-29T00:42:30;27.98;;;16.08;;
31596;SDS011;18201;50.978;7.034;2022-09-29T00:43:49;25.23;;;16.23;;
31596;SDS011;18201;50.978;7.034;2022-09-29T00:45:00;20.55;;;14.73;;
31596;SDS011;18201;50.978;7.034;2022-09-29T00:46:08;19.45;;;14.10;;
31596;SDS011;18201;50.978;7.034;2022-09-29T00:47:10;19.75;;;14.70;;
31596;SDS011;18201;50.978;7.034;2022-09-29T00:48:15;20.10;;;15.45;;
31596;SDS011;18201;50.978;7.034;2022-09-29T00:49:22;21.83;;;15.38;;
31596;SDS011;18201;50.978;7.034;2022-09-29T00:50:38;21.48;;;14.02;;
31596;SDS011;18201;50.978;7.034;2022-09-29T00:51:43;22.85;;;13.95;;
31596;SDS011;18201;50.978;7.034;2022-09-29T00:52:49;20.67;;;15.60;;
31596;SDS011;18201;50.978;7.034;2022-09-29T00:53:54;19.30;;;14.90;;
31596;SDS011;18201;50.978;7.034;2022-09-29T00:54:57;26.92;;;16.42;;
31596;SDS011;18201;50.978;7.034;2022-09-29T00:56:03;20.15;;;15.70;;
31596;SDS011;18201;50.978;7.034;2022-09-29T00:57:07;22.85;;;14.93;;
31596;SDS011;18201;50.978;7.034;2022-09-29T00:58:12;22.95;;;15.50;;
31596;SDS011;18201;50.978;7.034;2022-09-29T00:59:19;23.05;;;16.13;;
31596;SDS011;18201;50.978;7.034;2022-09-29T01:00:27;23.77;;;15.70;;
31596;SDS011;18201;50.978;7.034;2022-09-29T01:01:30;25.00;;;15.90;;
31596;SDS011;18201;50.978;7.034;2022-09-29T01:02:33;26.45;;;16.60;;
31596;SDS011;18201;50.978;7.034;2022-09-29T01:03:38;21.73;;;15.30;;
31596;SDS011;18201;50.978;7.034;2022-09-29T01:04:43;24.17;;;16.00;;
31596;SDS011;18201;50.978;7.034;2022-09-29T01:05:46;23.35;;;15.77;;
31596;SDS011;18201;50.978;7.034;2022-09-29T01:06:52;27.80;;;15.90;;
31596;SDS011;18201;50.978;7.034;2022-09-29T01:07:55;24.95;;;16.83;;
31596;SDS011;18201;50.978;7.034;2022-09-29T01:08:58;20.67;;;15.68;;
31596;SDS011;18201;50.978;7.034;2022-09-29T01:10:01;23.05;;;16.15;;
31596;SDS011;18201;50.978;7.034;2022-09-29T01:11:05;32.97;;;17.67;;
31596;SDS011;18201;50.978;7.034;2022-09-29T01:12:06;24.02;;;16.73;;
31596;SDS011;18201;50.978;7.034;2022-09-29T01:13:08;27.27;;;16.92;;
31596;SDS011;18201;50.978;7.034;2022-09-29T01:14:10;25.45;;;17.90;;
31596;SDS011;18201;50.978;7.034;2022-09-29T01:15:13;27.23;;;16.58;;
31596;SDS011;18201;50.978;7.034;2022-09-29T01:16:16;26.33;;;16.60;;
31596;SDS011;18201;50.978;7.034;2022-09-29T01:17:19;24.17;;;16.77;;
31596;SDS011;18201;50.978;7.034;2022-09-29T01:18:21;24.67;;;16.60;;
31596;SDS011;18201;50.978;7.034;2022-09-29T01:19:25;25.92;;;17.02;;
31596;SDS011;18201;50.978;7.034;2022-09-29T01:20:37;23.30;;;16.85;;
31596;SDS011;18201;50.978;7.034;2022-09-29T01:21:50;23.73;;;16.42;;
31596;SDS011;18201;50.978;7.034;2022-09-29T01:24:55;25.10;;;15.77;;
31596;SDS011;18201;50.978;7.034;2022-09-29T01:27:50;23.75;;;16.45;;
31596;SDS011;18201;50.978;7.034;2022-09-29T01:29:21;23.30;;;17.17;;
31596;SDS011;18201;50.978;7.034;2022-09-29T01:31:03;24.92;;;15.75;;
31596;SDS011;18201;50.978;7.034;2022-09-29T01:32:13;23.23;;;15.40;;
31596;SDS011;18201;50.978;7.034;2022-09-29T01:33:22;28.27;;;17.40;;
31596;SDS011;18201;50.978;7.034;2022-09-29T01:34:35;26.27;;;18.00;;
31596;SDS011;18201;50.978;7.034;2022-09-29T01:35:44;27.80;;;17.27;;
31596;SDS011;18201;50.978;7.034;2022-09-29T01:36:53;28.50;;;15.93;;
31596;SDS011;18201;50.978;7.034;2022-09-29T01:38:13;28.75;;;17.08;;
31596;SDS011;18201;50.978;7.034;2022-09-29T01:39:24;26.08;;;18.17;;
31596;SDS011;18201;50.978;7.034;2022-09-29T01:40:33;24.65;;;16.25;;
31596;SDS011;18201;50.978;7.034;2022-09-29T01:41:40;26.25;;;16.15;;
31596;SDS011;18201;50.978;7.034;2022-09-29T01:42:47;20.05;;;14.68;;
31596;SDS011;18201;50.978;7.034;2022-09-29T01:43:55;24.58;;;17.58;;
31596;SDS011;18201;50.978;7.034;2022-09-29T01:45:01;20.90;;;15.15;;
31596;SDS011;18201;50.978;7.034;2022-09-29T01:46:10;23.95;;;16.17;;
31596;SDS011;18201;50.978;7.034;2022-09-29T01:47:15;23.35;;;14.85;;
31596;SDS011;18201;50.978;7.034;2022-09-29T01:48:20;24.33;;;16.17;;
31596;SDS011;18201;50.978;7.034;2022-09-29T01:49:26;25.08;;;16.13;;
31596;SDS011;18201;50.978;7.034;2022-09-29T01:50:31;22.98;;;15.05;;
31596;SDS011;18201;50.978;7.034;2022-09-29T01:51:39;26.45;;;16.35;;
31596;SDS011;18201;50.978;7.034;2022-09-29T01:52:44;24.85;;;16.95;;
31596;SDS011;18201;50.978;7.034;2022-09-29T01:53:50;25.42;;;16.40;;
31596;SDS011;18201;50.978;7.034;2022-09-29T01:54:56;19.60;;;14.98;;
31596;SDS011;18201;50.978;7.034;2022-09-29T01:56:02;23.48;;;16.20;;
31596;SDS011;18201;50.978;7.034;2022-09-29T01:57:07;20.92;;;15.85;;
31596;SDS011;18201;50.978;7.034;2022-09-29T01:58:14;23.90;;;15.63;;
31596;SDS011;18201;50.978;7.034;2022-09-29T01:59:18;22.45;;;15.77;;
31596;SDS011;18201;50.978;7.034;2022-09-29T02:00:24;23.13;;;16.10;;
31596;SDS011;18201;50.978;7.034;2022-09-29T02:01:33;20.02;;;15.40;;
31596;SDS011;18201;50.978;7.034;2022-09-29T02:02:40;24.98;;;16.33;;
31596;SDS011;18201;50.978;7.034;2022-09-29T02:03:46;20.85;;;15.20;;
31596;SDS011;18201;50.978;7.034;2022-09-29T02:09:19;22.52;;;14.98;;
31596;SDS011;18201;50.978;7.034;2022-09-29T02:10:27;25.45;;;15.52;;
31596;SDS011;18201;50.978;7.034;2022-09-29T02:11:32;21.73;;;16.00;;
31596;SDS011;18201;50.978;7.034;2022-09-29T02:12:39;22.05;;;15.25;;
31596;SDS011;18201;50.978;7.034;2022-09-29T02:13:44;26.38;;;16.52;;
31596;SDS011;18201;50.978;7.034;2022-09-29T02:14:49;22.65;;;16.50;;
31596;SDS011;18201;50.978;7.034;2022-09-29T02:15:53;24.58;;;15.57;;
31596;SDS011;18201;50.978;7.034;2022-09-29T02:16:59;23.85;;;16.02;;
31596;SDS011;18201;50.978;7.034;2022-09-29T02:18:07;23.20;;;15.70;;
31596;SDS011;18201;50.978;7.034;2022-09-29T02:19:15;19.25;;;15.70;;
31596;SDS011;18201;50.978;7.034;2022-09-29T02:20:18;20.15;;;14.18;;
31596;SDS011;18201;50.978;7.034;2022-09-29T02:21:21;21.38;;;15.07;;
31596;SDS011;18201;50.978;7.034;2022-09-29T02:22:23;19.90;;;14.85;;
31596;SDS011;18201;50.978;7.034;2022-09-29T02:23:25;21.58;;;15.65;;
31596;SDS011;18201;50.978;7.034;2022-09-29T02:24:26;21.70;;;15.00;;
31596;SDS011;18201;50.978;7.034;2022-09-29T02:25:28;20.55;;;14.82;;
31596;SDS011;18201;50.978;7.034;2022-09-29T02:26:30;20.52;;;14.63;;
31596;SDS011;18201;50.978;7.034;2022-09-29T02:27:33;18.08;;;14.60;;
31596;SDS011;18201;50.978;7.034;2022-09-29T02:28:36;20.48;;;13.50;;
31596;SDS011;18201;50.978;7.034;2022-09-29T02:29:37;25.58;;;16.25;;
31596;SDS011;18201;50.978;7.034;2022-09-29T02:30:39;19.83;;;14.43;;
31596;SDS011;18201;50.978;7.034;2022-09-29T02:31:40;20.33;;;15.07;;
31596;SDS011;18201;50.978;7.034;2022-09-29T02:32:45;26.25;;;15.68;;
31596;SDS011;18201;50.978;7.034;2022-09-29T02:33:46;17.98;;;14.05;;
31596;SDS011;18201;50.978;7.034;2022-09-29T02:34:48;21.20;;;15.95;;
31596;SDS011;18201;50.978;7.034;2022-09-29T02:35:55;26.33;;;15.63;;
31596;SDS011;18201;50.978;7.034;2022-09-29T02:37:04;21.58;;;14.40;;
31596;SDS011;18201;50.978;7.034;2022-09-29T02:38:17;20.08;;;14.60;;
31596;SDS011;18201;50.978;7.034;2022-09-29T02:39:31;19.25;;;14.38;;
31596;SDS011;18201;50.978;7.034;2022-09-29T02:40:40;20.65;;;14.77;;
31596;SDS011;18201;50.978;7.034;2022-09-29T02:41:52;20.67;;;14.27;;
31596;SDS011;18201;50.978;7.034;2022-09-29T02:43:04;20.20;;;15.23;;
31596;SDS011;18201;50.978;7.034;2022-09-29T02:44:30;27.70;;;14.82;;
31596;SDS011;18201;50.978;7.034;2022-09-29T02:45:40;24.73;;;13.32;;
31596;SDS011;18201;50.978;7.034;2022-09-29T02:47:00;18.88;;;14.48;;
31596;SDS011;18201;50.978;7.034;2022-09-29T02:49:58;19.40;;;14.00;;
31596;SDS011;18201;50.978;7.034;2022-09-29T02:51:11;21.85;;;14.23;;
31596;SDS011;18201;50.978;7.034;2022-09-29T02:52:21;18.88;;;14.05;;
31596;SDS011;18201;50.978;7.034;2022-09-29T02:53:36;23.63;;;15.80;;
31596;SDS011;18201;50.978;7.034;2022-09-29T02:54:48;19.95;;;13.63;;
31596;SDS011;18201;50.978;7.034;2022-09-29T02:56:02;24.95;;;15.52;;
31596;SDS011;18201;50.978;7.034;2022-09-29T02:57:14;20.50;;;13.95;;
31596;SDS011;18201;50.978;7.034;2022-09-29T02:58:26;26.67;;;14.95;;
31596;SDS011;18201;50.978;7.034;2022-09-29T02:59:33;20.50;;;13.82;;
31596;SDS011;18201;50.978;7.034;2022-09-29T03:00:40;21.33;;;14.65;;
31596;SDS011;18201;50.978;7.034;2022-09-29T03:01:51;25.30;;;14.95;;
31596;SDS011;18201;50.978;7.034;2022-09-29T03:02:54;22.85;;;15.07;;
31596;SDS011;18201;50.978;7.034;2022-09-29T03:03:56;19.67;;;15.13;;
31596;SDS011;18201;50.978;7.034;2022-09-29T03:04:59;23.55;;;15.70;;
31596;SDS011;18201;50.978;7.034;2022-09-29T03:06:00;21.88;;;14.63;;
31596;SDS011;18201;50.978;7.034;2022-09-29T03:07:02;24.88;;;15.82;;
31596;SDS011;18201;50.978;7.034;2022-09-29T03:08:03;24.08;;;15.27;;
31596;SDS011;18201;50.978;7.034;2022-09-29T03:09:04;22.77;;;15.73;;
31596;SDS011;18201;50.978;7.034;2022-09-29T03:10:06;20.45;;;14.95;;
31596;SDS011;18201;50.978;7.034;2022-09-29T03:11:09;23.77;;;15.45;;
31596;SDS011;18201;50.978;7.034;2022-09-29T03:12:09;27.75;;;15.35;;
31596;SDS011;18201;50.978;7.034;2022-09-29T03:13:11;25.63;;;16.90;;
31596;SDS011;18201;50.978;7.034;2022-09-29T03:14:12;24.95;;;16.10;;
31596;SDS011;18201;50.978;7.034;2022-09-29T03:15:14;18.60;;;13.75;;
31596;SDS011;18201;50.978;7.034;2022-09-29T03:16:16;21.58;;;14.65;;
31596;SDS011;18201;50.978;7.034;2022-09-29T03:17:18;20.70;;;14.27;;
31596;SDS011;18201;50.978;7.034;2022-09-29T03:18:18;21.00;;;13.52;;
31596;SDS011;18201;50.978;7.034;2022-09-29T03:19:23;22.75;;;14.00;;
31596;SDS011;18201;50.978;7.034;2022-09-29T03:20:24;21.02;;;14.95;;
31596;SDS011;18201;50.978;7.034;2022-09-29T03:21:27;19.70;;;14.20;;
31596;SDS011;18201;50.978;7.034;2022-09-29T03:22:28;28.98;;;15.50;;
31596;SDS011;18201;50.978;7.034;2022-09-29T03:23:30;19.75;;;13.43;;
31596;SDS011;18201;50.978;7.034;2022-09-29T03:24:31;22.35;;;14.45;;
31596;SDS011;18201;50.978;7.034;2022-09-29T03:25:33;23.27;;;15.05;;
31596;SDS011;18201;50.978;7.034;2022-09-29T03:26:34;20.98;;;14.50;;
31596;SDS011;18201;50.978;7.034;2022-09-29T03:27:36;22.25;;;15.25;;
31596;SDS011;18201;50.978;7.034;2022-09-29T03:28:37;22.30;;;15.10;;
31596;SDS011;18201;50.978;7.034;2022-09-29T03:29:39;23.38;;;15.48;;
31596;SDS011;18201;50.978;7.034;2022-09-29T03:30:40;21.02;;;13.82;;
31596;SDS011;18201;50.978;7.034;2022-09-29T03:31:42;20.40;;;14.65;;
31596;SDS011;18201;50.978;7.034;2022-09-29T03:32:43;23.27;;;15.70;;
31596;SDS011;18201;50.978;7.034;2022-09-29T03:33:45;19.77;;;14.93;;
31596;SDS011;18201;50.978;7.034;2022-09-29T03:34:48;22.50;;;14.90;;
31596;SDS011;18201;50.978;7.034;2022-09-29T03:35:50;22.38;;;14.20;;
31596;SDS011;18201;50.978;7.034;2022-09-29T03:36:50;22.88;;;16.00;;
31596;SDS011;18201;50.978;7.034;2022-09-29T03:37:55;19.73;;;14.70;;
31596;SDS011;18201;50.978;7.034;2022-09-29T03:38:56;25.40;;;15.25;;
31596;SDS011;18201;50.978;7.034;2022-09-29T03:39:58;25.50;;;15.70;;
31596;SDS011;18201;50.978;7.034;2022-09-29T03:41:00;23.13;;;15.27;;
31596;SDS011;18201;50.978;7.034;2022-09-29T03:42:02;23.35;;;15.35;;
31596;SDS011;18201;50.978;7.034;2022-09-29T03:43:03;26.65;;;15.32;;
31596;SDS011;18201;50.978;7.034;2022-09-29T03:44:04;26.90;;;15.93;;
31596;SDS011;18201;50.978;7.034;2022-09-29T03:45:06;23.92;;;16.73;;
31596;SDS011;18201;50.978;7.034;2022-09-29T03:46:08;24.08;;;15.95;;
31596;SDS011;18201;50.978;7.034;2022-09-29T03:47:09;23.08;;;15.98;;
31596;SDS011;18201;50.978;7.034;2022-09-29T03:48:11;24.52;;;15.27;;
31596;SDS011;18201;50.978;7.034;2022-09-29T03:49:12;21.50;;;15.70;;
31596;SDS011;18201;50.978;7.034;2022-09-29T03:50:16;25.05;;;16.75;;
31596;SDS011;18201;50.978;7.034;2022-09-29T03:51:17;27.50;;;16.52;;
31596;SDS011;18201;50.978;7.034;2022-09-29T03:52:19;25.30;;;15.88;;
31596;SDS011;18201;50.978;7.034;2022-09-29T03:53:20;22.63;;;15.05;;
31596;SDS011;18201;50.978;7.034;2022-09-29T03:54:22;23.65;;;16.35;;
31596;SDS011;18201;50.978;7.034;2022-09-29T03:55:25;27.17;;;16.50;;
31596;SDS011;18201;50.978;7.034;2022-09-29T03:56:27;24.15;;;15.70;;
31596;SDS011;18201;50.978;7.034;2022-09-29T03:57:28;19.40;;;15.43;;
31596;SDS011;18201;50.978;7.034;2022-09-29T03:58:30;22.75;;;14.85;;
31596;SDS011;18201;50.978;7.034;2022-09-29T03:59:30;21.33;;;15.02;;
31596;SDS011;18201;50.978;7.034;2022-09-29T04:00:32;23.70;;;14.82;;
31596;SDS011;18201;50.978;7.034;2022-09-29T04:01:33;23.77;;;15.85;;
31596;SDS011;18201;50.978;7.034;2022-09-29T04:02:37;24.08;;;16.25;;
31596;SDS011;18201;50.978;7.034;2022-09-29T04:03:37;21.85;;;15.50;;
31596;SDS011;18201;50.978;7.034;2022-09-29T04:04:39;25.10;;;16.20;;
31596;SDS011;18201;50.978;7.034;2022-09-29T04:05:43;28.17;;;16.83;;
31596;SDS011;18201;50.978;7.034;2022-09-29T04:06:45;25.55;;;15.93;;
31596;SDS011;18201;50.978;7.034;2022-09-29T04:07:46;26.20;;;17.08;;
31596;SDS011;18201;50.978;7.034;2022-09-29T04:08:48;22.75;;;16.45;;
31596;SDS011;18201;50.978;7.034;2022-09-29T04:09:49;22.00;;;14.70;;
31596;SDS011;18201;50.978;7.034;2022-09-29T04:10:51;22.95;;;15.70;;
31596;SDS011;18201;50.978;7.034;2022-09-29T04:11:52;26.92;;;17.00;;
31596;SDS011;18201;50.978;7.034;2022-09-29T04:12:53;23.40;;;16.30;;
31596;SDS011;18201;50.978;7.034;2022-09-29T04:13:54;26.80;;;15.60;;
31596;SDS011;18201;50.978;7.034;2022-09-29T04:14:56;23.35;;;15.15;;
31596;SDS011;18201;50.978;7.034;2022-09-29T04:15:57;24.45;;;16.35;;
31596;SDS011;18201;50.978;7.034;2022-09-29T04:16:59;23.67;;;16.52;;
31596;SDS011;18201;50.978;7.034;2022-09-29T04:18:00;27.95;;;16.58;;
31596;SDS011;18201;50.978;7.034;2022-09-29T04:19:02;27.45;;;16.52;;
31596;SDS011;18201;50.978;7.034;2022-09-29T04:20:03;27.95;;;15.77;;
31596;SDS011;18201;50.978;7.034;2022-09-29T04:30:18;23.50;;;15.25;;
31596;SDS011;18201;50.978;7.034;2022-09-29T04:31:19;24.13;;;15.95;;
31596;SDS011;18201;50.978;7.034;2022-09-29T04:32:21;30.45;;;17.45;;
31596;SDS011;18201;50.978;7.034;2022-09-29T04:33:23;24.75;;;15.82;;
31596;SDS011;18201;50.978;7.034;2022-09-29T04:34:25;35.05;;;18.88;;
31596;SDS011;18201;50.978;7.034;2022-09-29T04:35:26;27.98;;;17.50;;
31596;SDS011;18201;50.978;7.034;2022-09-29T04:36:28;30.40;;;17.50;;
31596;SDS011;18201;50.978;7.034;2022-09-29T04:37:30;29.52;;;17.40;;
31596;SDS011;18201;50.978;7.034;2022-09-29T04:38:31;29.63;;;18.60;;
31596;SDS011;18201;50.978;7.034;2022-09-29T04:39:33;30.23;;;17.65;;
31596;SDS011;18201;50.978;7.034;2022-09-29T04:40:34;27.90;;;16.77;;
31596;SDS011;18201;50.978;7.034;2022-09-29T04:41:36;27.42;;;16.45;;
31596;SDS011;18201;50.978;7.034;2022-09-29T04:42:38;28.60;;;17.75;;
31596;SDS011;18201;50.978;7.034;2022-09-29T04:47:32;29.77;;;16.05;;
31596;SDS011;18201;50.978;7.034;2022-09-29T04:48:33;22.60;;;15.55;;
31596;SDS011;18201;50.978;7.034;2022-09-29T04:49:35;30.00;;;17.20;;
31596;SDS011;18201;50.978;7.034;2022-09-29T04:50:36;27.42;;;16.70;;
31596;SDS011;18201;50.978;7.034;2022-09-29T04:51:38;27.92;;;17.65;;
31596;SDS011;18201;50.978;7.034;2022-09-29T04:52:40;29.98;;;17.85;;
31596;SDS011;18201;50.978;7.034;2022-09-29T04:53:42;27.17;;;17.30;;
31596;SDS011;18201;50.978;7.034;2022-09-29T04:54:43;28.08;;;17.45;;
31596;SDS011;18201;50.978;7.034;2022-09-29T04:55:45;41.53;;;18.83;;
31596;SDS011;18201;50.978;7.034;2022-09-29T04:56:46;28.20;;;17.67;;
31596;SDS011;18201;50.978;7.034;2022-09-29T04:57:48;30.88;;;16.52;;
31596;SDS011;18201;50.978;7.034;2022-09-29T04:58:49;36.83;;;18.08;;
31596;SDS011;18201;50.978;7.034;2022-09-29T04:59:51;23.60;;;16.48;;
31596;SDS011;18201;50.978;7.034;2022-09-29T05:00:52;24.85;;;15.80;;
31596;SDS011;18201;50.978;7.034;2022-09-29T05:01:54;28.70;;;16.98;;
31596;SDS011;18201;50.978;7.034;2022-09-29T05:02:56;25.40;;;15.98;;
31596;SDS011;18201;50.978;7.034;2022-09-29T05:03:59;28.48;;;17.25;;
31596;SDS011;18201;50.978;7.034;2022-09-29T05:05:01;31.17;;;17.20;;
31596;SDS011;18201;50.978;7.034;2022-09-29T05:06:36;21.85;;;14.95;;
31596;SDS011;18201;50.978;7.034;2022-09-29T05:07:38;22.90;;;15.52;;
31596;SDS011;18201;50.978;7.034;2022-09-29T05:08:41;22.90;;;15.32;;
31596;SDS011;18201;50.978;7.034;2022-09-29T05:09:41;21.40;;;15.30;;
31596;SDS011;18201;50.978;7.034;2022-09-29T05:10:43;25.40;;;16.27;;
31596;SDS011;18201;50.978;7.034;2022-09-29T05:11:46;28.73;;;16.45;;
31596;SDS011;18201;50.978;7.034;2022-09-29T05:12:49;22.15;;;14.32;;
31596;SDS011;18201;50.978;7.034;2022-09-29T05:13:50;23.20;;;15.95;;
31596;SDS011;18201;50.978;7.034;2022-09-29T05:16:39;18.48;;;14.30;;
31596;SDS011;18201;50.978;7.034;2022-09-29T05:17:39;24.92;;;15.65;;
31596;SDS011;18201;50.978;7.034;2022-09-29T05:18:42;22.73;;;15.15;;
31596;SDS011;18201;50.978;7.034;2022-09-29T05:19:44;22.00;;;14.88;;
31596;SDS011;18201;50.978;7.034;2022-09-29T05:20:45;26.20;;;15.63;;
31596;SDS011;18201;50.978;7.034;2022-09-29T05:21:47;22.77;;;14.90;;
31596;SDS011;18201;50.978;7.034;2022-09-29T05:22:49;20.85;;;14.85;;
31596;SDS011;18201;50.978;7.034;2022-09-29T05:23:50;27.52;;;15.55;;
31596;SDS011;18201;50.978;7.034;2022-09-29T05:24:52;25.50;;;16.00;;
31596;SDS011;18201;50.978;7.034;2022-09-29T05:25:53;25.08;;;15.27;;
31596;SDS011;18201;50.978;7.034;2022-09-29T05:26:54;22.85;;;15.18;;
31596;SDS011;18201;50.978;7.034;2022-09-29T05:27:56;27.70;;;16.27;;
31596;SDS011;18201;50.978;7.034;2022-09-29T05:28:57;45.63;;;18.73;;
31596;SDS011;18201;50.978;7.034;2022-09-29T05:29:59;33.40;;;17.60;;
31596;SDS011;18201;50.978;7.034;2022-09-29T05:31:00;27.75;;;16.58;;
31596;SDS011;18201;50.978;7.034;2022-09-29T05:32:02;25.98;;;15.15;;
31596;SDS011;18201;50.978;7.034;2022-09-29T05:33:03;25.25;;;16.30;;
31596;SDS011;18201;50.978;7.034;2022-09-29T05:34:07;21.85;;;15.52;;
31596;SDS011;18201;50.978;7.034;2022-09-29T05:35:09;25.52;;;15.77;;
31596;SDS011;18201;50.978;7.034;2022-09-29T05:36:10;32.65;;;16.92;;
31596;SDS011;18201;50.978;7.034;2022-09-29T05:37:12;23.92;;;15.98;;
31596;SDS011;18201;50.978;7.034;2022-09-29T05:38:13;26.23;;;15.98;;
31596;SDS011;18201;50.978;7.034;2022-09-29T05:39:16;24.55;;;16.10;;
31596;SDS011;18201;50.978;7.034;2022-09-29T05:40:19;26.77;;;15.52;;
31596;SDS011;18201;50.978;7.034;2022-09-29T05:41:23;28.95;;;16.65;;
31596;SDS011;18201;50.978;7.034;2022-09-29T05:42:24;31.67;;;17.60;;
31596;SDS011;18201;50.978;7.034;2022-09-29T05:43:26;30.40;;;16.40;;
31596;SDS011;18201;50.978;7.034;2022-09-29T05:44:28;26.05;;;17.45;;
31596;SDS011;18201;50.978;7.034;2022-09-29T05:45:30;30.40;;;16.90;;
31596;SDS011;18201;50.978;7.034;2022-09-29T05:47:48;32.63;;;17.50;;
31596;SDS011;18201;50.978;7.034;2022-09-29T05:48:49;29.73;;;17.67;;
31596;SDS011;18201;50.978;7.034;2022-09-29T05:49:52;28.65;;;17.42;;
31596;SDS011;18201;50.978;7.034;2022-09-29T05:50:53;25.70;;;17.13;;
31596;SDS011;18201;50.978;7.034;2022-09-29T05:51:55;29.77;;;17.95;;
31596;SDS011;18201;50.978;7.034;2022-09-29T05:53:00;31.20;;;17.63;;
31596;SDS011;18201;50.978;7.034;2022-09-29T05:54:03;27.35;;;18.17;;
31596;SDS011;18201;50.978;7.034;2022-09-29T05:55:04;27.85;;;15.95;;
31596;SDS011;18201;50.978;7.034;2022-09-29T05:56:09;29.50;;;18.25;;
31596;SDS011;18201;50.978;7.034;2022-09-29T05:57:11;34.13;;;18.45;;
31596;SDS011;18201;50.978;7.034;2022-09-29T05:58:13;29.77;;;17.20;;
31596;SDS011;18201;50.978;7.034;2022-09-29T05:59:14;27.00;;;17.27;;
31596;SDS011;18201;50.978;7.034;2022-09-29T06:00:16;29.95;;;18.00;;
31596;SDS011;18201;50.978;7.034;2022-09-29T06:01:17;30.60;;;17.80;;
31596;SDS011;18201;50.978;7.034;2022-09-29T06:02:20;26.90;;;17.40;;
31596;SDS011;18201;50.978;7.034;2022-09-29T06:03:21;30.27;;;17.80;;
31596;SDS011;18201;50.978;7.034;2022-09-29T06:04:23;30.73;;;17.48;;
31596;SDS011;18201;50.978;7.034;2022-09-29T06:05:25;28.73;;;18.45;;
31596;SDS011;18201;50.978;7.034;2022-09-29T06:06:28;30.05;;;18.00;;
31596;SDS011;18201;50.978;7.034;2022-09-29T06:07:29;25.75;;;15.75;;
31596;SDS011;18201;50.978;7.034;2022-09-29T06:08:31;28.23;;;18.05;;
31596;SDS011;18201;50.978;7.034;2022-09-29T06:09:32;27.02;;;17.15;;
31596;SDS011;18201;50.978;7.034;2022-09-29T06:10:34;27.27;;;16.92;;
31596;SDS011;18201;50.978;7.034;2022-09-29T06:11:35;27.38;;;17.08;;
31596;SDS011;18201;50.978;7.034;2022-09-29T06:12:37;25.38;;;16.48;;
31596;SDS011;18201;50.978;7.034;2022-09-29T06:13:38;33.08;;;17.63;;
31596;SDS011;18201;50.978;7.034;2022-09-29T06:14:40;31.02;;;17.05;;
31596;SDS011;18201;50.978;7.034;2022-09-29T06:15:42;26.20;;;17.23;;
31596;SDS011;18201;50.978;7.034;2022-09-29T06:16:43;28.50;;;16.98;;
31596;SDS011;18201;50.978;7.034;2022-09-29T06:17:45;30.33;;;18.08;;
31596;SDS011;18201;50.978;7.034;2022-09-29T06:18:46;29.65;;;16.15;;
31596;SDS011;18201;50.978;7.034;2022-09-29T06:19:48;30.25;;;17.55;;
31596;SDS011;18201;50.978;7.034;2022-09-29T06:20:53;33.65;;;18.40;;
31596;SDS011;18201;50.978;7.034;2022-09-29T06:21:58;25.77;;;17.30;;
31596;SDS011;18201;50.978;7.034;2022-09-29T06:23:00;30.08;;;17.92;;
31596;SDS011;18201;50.978;7.034;2022-09-29T06:24:01;29.92;;;18.15;;
31596;SDS011;18201;50.978;7.034;2022-09-29T06:25:06;28.60;;;17.20;;
31596;SDS011;18201;50.978;7.034;2022-09-29T06:26:09;28.15;;;16.77;;
31596;SDS011;18201;50.978;7.034;2022-09-29T06:27:11;30.52;;;18.15;;
31596;SDS011;18201;50.978;7.034;2022-09-29T06:28:13;32.15;;;18.83;;
31596;SDS011;18201;50.978;7.034;2022-09-29T06:29:14;36.22;;;18.92;;
31596;SDS011;18201;50.978;7.034;2022-09-29T06:30:16;30.50;;;18.23;;
31596;SDS011;18201;50.978;7.034;2022-09-29T06:31:18;31.17;;;18.27;;
31596;SDS011;18201;50.978;7.034;2022-09-29T06:32:20;37.78;;;18.73;;
31596;SDS011;18201;50.978;7.034;2022-09-29T06:33:22;26.45;;;17.52;;
31596;SDS011;18201;50.978;7.034;2022-09-29T06:34:23;32.83;;;17.38;;
31596;SDS011;18201;50.978;7.034;2022-09-29T06:35:25;30.38;;;18.63;;
31596;SDS011;18201;50.978;7.034;2022-09-29T06:36:54;27.33;;;17.15;;
31596;SDS011;18201;50.978;7.034;2022-09-29T06:38:14;31.10;;;17.83;;
31596;SDS011;18201;50.978;7.034;2022-09-29T06:39:16;32.90;;;18.08;;
31596;SDS011;18201;50.978;7.034;2022-09-29T06:40:18;34.00;;;18.83;;
31596;SDS011;18201;50.978;7.034;2022-09-29T06:41:22;29.00;;;17.77;;
31596;SDS011;18201;50.978;7.034;2022-09-29T06:42:23;28.08;;;18.63;;